Time;durP1;ratioP1;P1;durP2;ratioP2;P2;SDS_P1;SDS_P2;PMS_P1;PMS_P2;Temp;Humidity;BMP_temperature;BMP_pressure;BME280_temperature;BME280_humidity;BME280_pressure;Samples;Min_cycle;Max_cycle;Signal;HPM_P1;HPM_P2
2022/12/18 00:01:29;;;;;;;51.00;20.27;;;-9.10;99.90;;;;;;6313970;22;20185;-88
2022/12/18 00:03:55;;;;;;;48.00;20.93;;;-9.10;99.90;;;;;;6313803;22;20169;-87
2022/12/18 00:06:22;;;;;;;52.37;21.73;;;-9.10;99.90;;;;;;6313074;22;20179;-88
2022/12/18 00:08:48;;;;;;;44.90;20.17;;;-9.10;99.90;;;;;;6312716;22;20179;-88
2022/12/18 00:11:17;;;;;;;44.17;18.90;;;-9.10;99.90;;;;;;6314253;22;20185;-88
2022/12/18 00:13:43;;;;;;;45.20;19.87;;;-9.10;99.90;;;;;;6314396;22;20562;-88
2022/12/18 00:16:15;;;;;;;45.83;20.17;;;-9.10;99.90;;;;;;6315744;22;20162;-87
2022/12/18 00:18:42;;;;;;;46.53;19.90;;;-9.10;99.90;;;;;;6315121;22;20186;-88
2022/12/18 00:21:10;;;;;;;43.60;18.93;;;-9.20;99.90;;;;;;6315494;22;20190;-88
2022/12/18 00:23:37;;;;;;;51.77;20.33;;;-9.10;99.90;;;;;;6314228;22;20162;-87
2022/12/18 00:26:14;;;;;;;49.67;21.17;;;-9.10;99.90;;;;;;6313697;22;20186;-87
2022/12/18 00:28:41;;;;;;;51.03;20.70;;;-9.20;99.90;;;;;;6313918;22;20231;-88
2022/12/18 00:31:10;;;;;;;53.57;20.37;;;-9.20;99.90;;;;;;6313054;22;20154;-88
2022/12/18 00:33:37;;;;;;;48.87;20.53;;;-9.30;99.90;;;;;;6313288;22;20147;-88
2022/12/18 00:36:04;;;;;;;54.57;20.30;;;-9.20;99.90;;;;;;6313698;22;20180;-88
2022/12/18 00:38:31;;;;;;;55.90;20.57;;;-9.30;99.90;;;;;;6313753;22;20182;-88
2022/12/18 00:40:58;;;;;;;55.30;20.33;;;-9.40;99.90;;;;;;6313889;22;20222;-88
2022/12/18 00:43:24;;;;;;;51.67;20.97;;;-9.50;99.90;;;;;;6313708;22;20220;-88
2022/12/18 00:45:51;;;;;;;56.03;21.73;;;-9.60;99.90;;;;;;6313749;22;20282;-88
2022/12/18 00:48:17;;;;;;;53.27;20.03;;;-9.60;99.90;;;;;;6313182;22;20213;-88
2022/12/18 00:50:44;;;;;;;55.60;21.63;;;-9.50;99.90;;;;;;6313186;22;20155;-88
2022/12/18 00:53:10;;;;;;;53.00;21.13;;;-9.60;99.90;;;;;;6313895;22;20159;-88
2022/12/18 00:55:38;;;;;;;55.80;20.00;;;-9.70;99.90;;;;;;6313715;22;20186;-88
2022/12/18 00:58:04;;;;;;;52.47;21.20;;;-9.70;99.90;;;;;;6313329;22;20207;-88
2022/12/18 01:00:30;;;;;;;46.93;20.73;;;-9.80;99.90;;;;;;6313765;22;20154;-88
2022/12/18 01:02:56;;;;;;;49.27;18.90;;;-9.80;99.90;;;;;;6313342;22;20155;-88
2022/12/18 01:05:24;;;;;;;48.07;18.00;;;-9.70;99.90;;;;;;6313899;22;20241;-88
2022/12/18 01:07:50;;;;;;;47.33;18.50;;;-9.70;99.90;;;;;;6313667;22;20224;-87
2022/12/18 01:10:16;;;;;;;43.20;19.47;;;-9.70;99.90;;;;;;6313645;22;20163;-88
2022/12/18 01:12:42;;;;;;;49.33;19.83;;;-9.60;99.90;;;;;;6313568;22;20147;-87
2022/12/18 01:15:11;;;;;;;41.53;17.73;;;-9.70;99.90;;;;;;6314120;22;20155;-88
2022/12/18 01:17:37;;;;;;;43.43;18.87;;;-9.60;99.90;;;;;;6314928;22;20182;-87
2022/12/18 01:20:04;;;;;;;43.57;18.10;;;-9.50;99.90;;;;;;6315095;22;20167;-88
2022/12/18 01:22:32;;;;;;;48.97;19.47;;;-9.40;99.90;;;;;;6315605;22;20147;-87
2022/12/18 01:24:58;;;;;;;44.47;18.63;;;-9.30;99.90;;;;;;6315900;22;20583;-88
2022/12/18 01:27:24;;;;;;;51.57;20.30;;;-9.30;99.90;;;;;;6314945;22;20201;-88
2022/12/18 01:29:51;;;;;;;51.33;20.47;;;-9.40;99.90;;;;;;6315751;22;20167;-88
2022/12/18 01:32:19;;;;;;;49.30;20.70;;;-9.30;99.90;;;;;;6315450;22;20154;-88
2022/12/18 01:34:45;;;;;;;49.83;19.60;;;-9.40;99.90;;;;;;6315462;22;20157;-88
2022/12/18 01:37:11;;;;;;;45.23;19.33;;;-9.50;99.90;;;;;;6315528;22;20175;-87
2022/12/18 01:39:37;;;;;;;52.53;20.37;;;-9.50;99.90;;;;;;6314568;22;20165;-88
2022/12/18 01:42:11;;;;;;;53.70;19.90;;;-9.40;99.90;;;;;;6315151;22;20194;-87
2022/12/18 01:45:12;;;;;;;48.60;20.40;;;-9.50;99.90;;;;;;6314298;22;20225;-88
2022/12/18 01:47:47;;;;;;;59.60;21.67;;;-9.40;99.90;;;;;;6256628;22;20193;-88
2022/12/18 01:50:21;;;;;;;48.17;19.43;;;-9.30;99.90;;;;;;6315814;22;20157;-88
2022/12/18 01:52:53;;;;;;;49.63;19.97;;;-9.40;99.90;;;;;;6314913;22;20162;-87
2022/12/18 01:55:23;;;;;;;46.37;19.27;;;-9.50;99.90;;;;;;6315376;22;20180;-88
2022/12/18 01:57:53;;;;;;;42.67;18.37;;;-9.50;99.90;;;;;;6315085;22;20186;-87
2022/12/18 02:00:22;;;;;;;44.80;18.63;;;-9.40;99.90;;;;;;6315687;22;20173;-88
2022/12/18 02:02:51;;;;;;;54.43;19.60;;;-9.40;99.90;;;;;;6315191;22;20180;-87
2022/12/18 02:05:41;;;;;;;43.43;19.27;;;-9.40;99.90;;;;;;6315666;22;20165;-88
2022/12/18 02:08:16;;;;;;;42.83;17.53;;;-9.40;99.90;;;;;;6340859;22;20239;-87
2022/12/18 02:10:59;;;;;;;47.30;18.97;;;-9.40;99.90;;;;;;6315662;22;20150;-88
2022/12/18 02:13:38;;;;;;;41.27;17.53;;;-9.50;99.90;;;;;;6315294;22;20158;-87
2022/12/18 02:16:38;;;;;;;40.23;17.50;;;-9.70;99.90;;;;;;6315012;22;20150;-88
2022/12/18 02:19:25;;;;;;;41.00;17.70;;;-9.80;99.90;;;;;;6266731;22;20189;-88
2022/12/18 02:22:28;;;;;;;41.33;17.47;;;-9.80;99.90;;;;;;6237825;22;20157;-88
2022/12/18 02:25:23;;;;;;;44.30;18.07;;;-9.80;99.90;;;;;;6341116;22;20452;-88
2022/12/18 02:27:52;;;;;;;46.13;17.90;;;-9.80;99.90;;;;;;6294334;22;20196;-88
2022/12/18 02:30:20;;;;;;;45.80;17.73;;;-9.80;99.90;;;;;;6341489;22;20544;-88
2022/12/18 02:32:52;;;;;;;43.40;17.60;;;-9.80;99.90;;;;;;6315694;22;20250;-87
2022/12/18 02:35:25;;;;;;;45.57;17.43;;;-9.70;99.90;;;;;;6316121;22;20181;-88
2022/12/18 02:37:54;;;;;;;51.47;19.00;;;-9.80;99.90;;;;;;6342442;22;20174;-87
2022/12/18 02:40:23;;;;;;;42.17;17.77;;;-9.70;99.90;;;;;;6316048;22;20162;-87
2022/12/18 02:42:50;;;;;;;39.63;17.83;;;-9.60;99.90;;;;;;6342175;22;20184;-87
2022/12/18 02:45:18;;;;;;;39.20;17.90;;;-9.60;99.90;;;;;;6308147;22;20213;-87
2022/12/18 02:47:48;;;;;;;39.87;17.87;;;-9.50;99.90;;;;;;6281414;22;20186;-87
2022/12/18 02:51:16;;;;;;;38.40;16.93;;;-9.60;99.90;;;;;;6281287;22;20205;-87
2022/12/18 02:54:12;;;;;;;40.60;17.60;;;-9.60;99.90;;;;;;6101477;23;20245;-86
2022/12/18 02:56:51;;;;;;;43.97;17.60;;;-9.60;99.90;;;;;;6261452;22;20176;-86
2022/12/18 02:59:34;;;;;;;40.77;18.60;;;-9.50;99.90;;;;;;6281517;22;20183;-86
2022/12/18 03:02:20;;;;;;;42.53;16.77;;;-9.60;99.90;;;;;;6281698;22;20531;-86
2022/12/18 03:05:04;;;;;;;47.17;18.37;;;-9.60;99.90;;;;;;6307236;22;20155;-86
2022/12/18 03:07:42;;;;;;;43.77;18.07;;;-9.60;99.90;;;;;;6281335;22;20187;-86
2022/12/18 03:10:16;;;;;;;46.87;18.20;;;-9.50;99.90;;;;;;6306652;22;20148;-86
2022/12/18 03:12:53;;;;;;;45.20;19.20;;;-9.50;99.90;;;;;;6306778;22;20156;-86
2022/12/18 03:15:26;;;;;;;42.27;18.93;;;-9.50;99.90;;;;;;6281151;22;20152;-86
2022/12/18 03:18:04;;;;;;;55.27;19.07;;;-9.50;99.90;;;;;;6282106;22;20152;-86
2022/12/18 03:20:34;;;;;;;45.83;18.77;;;-9.50;99.90;;;;;;6281479;22;20205;-86
2022/12/18 03:23:09;;;;;;;48.10;19.60;;;-9.50;99.90;;;;;;6280733;22;20180;-86
2022/12/18 03:25:39;;;;;;;52.00;20.70;;;-9.40;99.90;;;;;;6280926;22;20148;-86
2022/12/18 03:28:08;;;;;;;55.27;19.97;;;-9.30;99.90;;;;;;6280691;22;20211;-86
2022/12/18 03:30:38;;;;;;;51.93;21.30;;;-9.30;99.90;;;;;;6281027;22;20179;-86
2022/12/18 03:33:23;;;;;;;51.10;19.47;;;-9.20;99.90;;;;;;6306899;22;20151;-86
2022/12/18 03:35:51;;;;;;;59.00;21.30;;;-9.10;99.90;;;;;;6280979;22;20179;-86
2022/12/18 03:38:18;;;;;;;49.03;20.07;;;-9.10;99.90;;;;;;6281039;22;20160;-86
2022/12/18 03:40:52;;;;;;;60.23;20.80;;;-9.00;99.90;;;;;;6281174;22;20179;-86
2022/12/18 03:43:43;;;;;;;56.30;20.20;;;-8.90;99.90;;;;;;6282147;22;20159;-86
2022/12/18 03:46:24;;;;;;;48.50;20.40;;;-8.90;99.90;;;;;;6286000;22;20190;-86
2022/12/18 03:49:08;;;;;;;55.40;20.10;;;-8.90;99.90;;;;;;6311703;22;20147;-87
2022/12/18 03:51:38;;;;;;;59.50;21.43;;;-8.80;99.90;;;;;;6286126;22;20151;-87
2022/12/18 03:54:06;;;;;;;55.30;21.63;;;-8.80;99.90;;;;;;6286127;22;20166;-87
2022/12/18 03:56:44;;;;;;;57.10;20.63;;;-8.70;99.90;;;;;;6311481;22;20664;-87
2022/12/18 03:59:14;;;;;;;53.37;20.97;;;-8.80;99.90;;;;;;6311858;22;20147;-88
2022/12/18 04:01:46;;;;;;;50.30;19.50;;;-8.80;99.90;;;;;;6310201;22;20162;-87
2022/12/18 04:04:15;;;;;;;63.73;21.40;;;-8.90;99.90;;;;;;6285479;22;20155;-87
2022/12/18 04:06:43;;;;;;;54.87;21.70;;;-8.90;99.90;;;;;;6286266;22;20210;-87
2022/12/18 04:09:11;;;;;;;53.17;21.80;;;-8.90;99.90;;;;;;6311269;22;20152;-87
2022/12/18 04:11:44;;;;;;;62.50;21.50;;;-9.00;99.90;;;;;;6311674;22;20154;-87
2022/12/18 04:14:11;;;;;;;58.30;21.37;;;-8.90;99.90;;;;;;6285974;22;20163;-88
2022/12/18 04:16:37;;;;;;;52.33;20.87;;;-8.90;99.90;;;;;;6285731;22;20244;-87
2022/12/18 04:19:05;;;;;;;53.73;21.20;;;-8.90;99.90;;;;;;6286496;22;20184;-87
2022/12/18 04:21:37;;;;;;;50.47;20.77;;;-8.90;99.90;;;;;;6287269;22;20155;-87
2022/12/18 04:24:03;;;;;;;67.83;20.60;;;-8.90;99.90;;;;;;6285614;22;20159;-87
2022/12/18 04:26:30;;;;;;;61.43;22.50;;;-9.00;99.90;;;;;;6311780;22;20205;-88
2022/12/18 04:29:10;;;;;;;54.90;21.47;;;-9.00;99.90;;;;;;6288847;22;20245;-88
2022/12/18 04:31:36;;;;;;;67.27;22.50;;;-8.90;99.90;;;;;;6285694;22;20158;-88
2022/12/18 04:34:02;;;;;;;65.33;23.50;;;-8.90;99.90;;;;;;6285902;22;20156;-89
2022/12/18 04:36:31;;;;;;;72.20;24.27;;;-8.90;99.90;;;;;;6286021;22;20178;-89
2022/12/18 04:38:57;;;;;;;72.00;23.40;;;-8.80;99.90;;;;;;6285609;22;20159;-88
2022/12/18 04:41:23;;;;;;;74.97;24.03;;;-8.80;99.90;;;;;;6285789;22;20251;-88
2022/12/18 04:43:51;;;;;;;74.57;23.97;;;-8.70;99.90;;;;;;6286487;22;20191;-88
2022/12/18 04:46:17;;;;;;;65.70;24.27;;;-8.70;99.90;;;;;;6285553;22;20197;-87
2022/12/18 04:48:46;;;;;;;74.33;23.60;;;-8.80;99.90;;;;;;6285910;22;20159;-88
2022/12/18 04:51:12;;;;;;;61.30;22.30;;;-8.80;99.90;;;;;;6287432;22;20155;-87
2022/12/18 04:53:38;;;;;;;68.83;23.67;;;-8.80;99.90;;;;;;6313492;22;20208;-87
2022/12/18 04:56:11;;;;;;;60.37;23.13;;;-8.90;99.90;;;;;;6287388;22;20247;-87
2022/12/18 04:58:38;;;;;;;54.23;21.40;;;-9.10;99.90;;;;;;6287237;22;20155;-88
2022/12/18 05:01:18;;;;;;;62.07;22.33;;;-9.10;99.90;;;;;;6287969;22;20163;-87
2022/12/18 05:03:44;;;;;;;56.77;21.63;;;-9.20;99.90;;;;;;6289841;22;20161;-87
2022/12/18 05:06:10;;;;;;;63.20;22.03;;;-9.10;99.90;;;;;;6312842;22;20186;-88
2022/12/18 05:08:36;;;;;;;61.50;21.83;;;-9.10;99.90;;;;;;6286920;22;20147;-87
2022/12/18 05:11:06;;;;;;;56.43;21.50;;;-9.20;99.90;;;;;;6287422;22;20155;-87
2022/12/18 05:13:33;;;;;;;69.57;21.43;;;-9.20;99.90;;;;;;6287587;22;20328;-87
2022/12/18 05:15:59;;;;;;;52.30;20.03;;;-9.20;99.90;;;;;;6312749;22;20182;-86
2022/12/18 05:18:25;;;;;;;61.77;22.23;;;-9.20;99.90;;;;;;6313190;22;20232;-87
2022/12/18 05:20:52;;;;;;;53.63;21.43;;;-9.20;99.90;;;;;;6313028;22;20147;-87
2022/12/18 05:23:19;;;;;;;57.97;21.73;;;-9.10;99.90;;;;;;6287276;22;20166;-86
2022/12/18 05:25:52;;;;;;;60.30;21.03;;;-9.10;99.90;;;;;;6313050;22;20182;-86
2022/12/18 05:28:18;;;;;;;55.20;21.97;;;-9.00;99.90;;;;;;6313165;22;20152;-87
2022/12/18 05:30:50;;;;;;;52.57;21.30;;;-9.10;99.90;;;;;;6306676;22;20162;-86
2022/12/18 05:33:16;;;;;;;63.20;22.67;;;-9.10;99.90;;;;;;6286910;22;20147;-87
2022/12/18 05:35:43;;;;;;;61.73;22.40;;;-9.10;99.90;;;;;;6312753;22;20176;-87
2022/12/18 05:38:08;;;;;;;67.57;23.67;;;-9.10;99.90;;;;;;6286753;22;20597;-88
2022/12/18 05:40:34;;;;;;;70.20;21.87;;;-9.20;99.90;;;;;;6287156;22;20162;-88
2022/12/18 05:43:00;;;;;;;57.90;23.20;;;-9.30;99.90;;;;;;6287525;22;20155;-87
2022/12/18 05:45:26;;;;;;;54.93;22.37;;;-9.30;99.90;;;;;;6286601;22;20163;-87
2022/12/18 05:47:52;;;;;;;56.33;20.60;;;-9.30;99.90;;;;;;6286849;22;20266;-87
2022/12/18 05:50:18;;;;;;;45.87;20.13;;;-9.30;99.90;;;;;;6287007;22;20186;-87
2022/12/18 05:52:44;;;;;;;54.50;21.77;;;-9.30;99.90;;;;;;6286857;22;20236;-87
2022/12/18 05:55:09;;;;;;;60.50;20.13;;;-9.30;99.90;;;;;;6312531;22;20158;-88
2022/12/18 05:57:35;;;;;;;60.87;22.47;;;-9.30;99.90;;;;;;6287254;22;20187;-88
2022/12/18 06:00:02;;;;;;;53.40;21.77;;;-9.40;99.90;;;;;;6287052;22;20216;-86
2022/12/18 06:02:38;;;;;;;59.10;21.97;;;-9.40;99.90;;;;;;6314214;22;20230;-86
2022/12/18 06:05:04;;;;;;;51.60;20.60;;;-9.40;99.90;;;;;;6312566;22;20187;-86
2022/12/18 06:07:30;;;;;;;56.77;20.50;;;-9.40;99.90;;;;;;6312972;22;20272;-86
2022/12/18 06:09:56;;;;;;;53.67;19.67;;;-9.40;99.90;;;;;;6286800;22;20159;-87
2022/12/18 06:12:22;;;;;;;54.33;21.30;;;-9.50;99.90;;;;;;6286978;22;20159;-87
2022/12/18 06:14:48;;;;;;;52.80;20.23;;;-9.50;99.90;;;;;;6287161;22;20151;-87
2022/12/18 06:17:13;;;;;;;62.20;19.87;;;-9.50;99.90;;;;;;6286647;22;20558;-87
2022/12/18 06:19:39;;;;;;;46.10;18.47;;;-9.50;99.90;;;;;;6286855;22;20155;-87
2022/12/18 06:22:05;;;;;;;62.03;20.87;;;-9.70;99.90;;;;;;6286935;22;20159;-87
2022/12/18 06:24:31;;;;;;;57.30;19.37;;;-9.70;99.90;;;;;;6286620;22;20155;-87
2022/12/18 06:26:57;;;;;;;46.40;18.63;;;-9.80;99.90;;;;;;6286542;22;20314;-88
2022/12/18 06:29:23;;;;;;;63.43;23.40;;;-9.80;99.90;;;;;;6286469;22;20249;-88
2022/12/18 06:31:48;;;;;;;60.57;22.83;;;-9.80;99.90;;;;;;6286595;22;20217;-88
2022/12/18 06:34:14;;;;;;;72.93;28.00;;;-9.90;99.90;;;;;;6286450;22;20155;-87
2022/12/18 06:36:40;;;;;;;65.93;24.70;;;-10.00;99.90;;;;;;6286266;22;20232;-87
2022/12/18 06:39:06;;;;;;;67.33;22.13;;;-10.10;99.90;;;;;;6286321;22;20159;-88
2022/12/18 06:41:32;;;;;;;57.73;21.43;;;-10.10;99.90;;;;;;6286387;22;20152;-88
2022/12/18 06:43:58;;;;;;;55.57;22.13;;;-10.30;99.90;;;;;;6286105;22;20163;-88
2022/12/18 06:46:23;;;;;;;52.97;20.70;;;-10.40;99.90;;;;;;6286249;22;20187;-88
2022/12/18 06:48:50;;;;;;;46.83;19.67;;;-10.40;99.90;;;;;;6286036;22;20208;-87
2022/12/18 06:51:20;;;;;;;46.50;20.43;;;-10.50;99.90;;;;;;6286385;22;20213;-88
2022/12/18 06:53:46;;;;;;;66.00;26.27;;;-10.40;99.90;;;;;;6311989;22;20210;-88
2022/12/18 06:56:12;;;;;;;52.00;20.43;;;-10.50;99.90;;;;;;6286246;22;20194;-87
2022/12/18 06:58:39;;;;;;;49.70;18.93;;;-10.50;99.90;;;;;;6285984;22;20163;-88
2022/12/18 07:01:10;;;;;;;53.60;20.43;;;-10.60;99.90;;;;;;6286052;22;20163;-88
2022/12/18 07:04:16;;;;;;;46.00;20.33;;;-10.50;99.90;;;;;;6285916;22;20249;-88
2022/12/18 07:06:42;;;;;;;49.50;18.93;;;-10.60;99.90;;;;;;6286082;22;20185;-88
2022/12/18 07:09:22;;;;;;;42.90;18.67;;;-10.80;99.90;;;;;;6285434;22;20155;-88
2022/12/18 07:11:48;;;;;;;45.00;18.93;;;-10.80;99.90;;;;;;6312151;22;20139;-88
2022/12/18 07:14:15;;;;;;;48.73;19.57;;;-10.90;99.90;;;;;;6286237;22;20154;-88
2022/12/18 07:16:41;;;;;;;49.27;19.33;;;-10.90;99.90;;;;;;6285790;22;20172;-88
2022/12/18 07:19:10;;;;;;;48.23;18.70;;;-11.00;99.90;;;;;;6286967;22;20175;-88
2022/12/18 07:21:46;;;;;;;46.63;18.50;;;-11.10;99.90;;;;;;6287882;22;20151;-88
2022/12/18 07:24:12;;;;;;;55.00;19.47;;;-11.20;99.90;;;;;;6311736;22;20170;-87
2022/12/18 07:26:38;;;;;;;51.93;20.80;;;-11.10;99.90;;;;;;6285303;22;20179;-87
2022/12/18 07:29:04;;;;;;;48.90;19.53;;;-11.10;99.90;;;;;;6311089;22;20592;-87
2022/12/18 07:31:30;;;;;;;48.40;20.07;;;-11.00;99.90;;;;;;6312155;22;20159;-87
2022/12/18 07:33:56;;;;;;;56.90;19.97;;;-11.00;99.90;;;;;;6286713;22;20147;-87
2022/12/18 07:36:22;;;;;;;54.13;20.97;;;-10.90;99.90;;;;;;6311551;22;20179;-87
2022/12/18 07:38:49;;;;;;;65.63;23.90;;;-10.90;99.90;;;;;;6311465;22;20147;-87
2022/12/18 07:41:15;;;;;;;60.67;22.37;;;-10.90;99.90;;;;;;6311351;22;20160;-88
2022/12/18 07:43:41;;;;;;;62.57;22.90;;;-10.80;99.90;;;;;;6311220;22;20167;-88
2022/12/18 07:46:08;;;;;;;69.50;23.77;;;-10.70;99.90;;;;;;6308230;22;20191;-87
2022/12/18 07:48:34;;;;;;;71.47;25.07;;;-10.60;99.90;;;;;;6285910;22;20163;-87
2022/12/18 07:51:05;;;;;;;66.67;24.00;;;-10.60;99.90;;;;;;6308145;22;20155;-87
2022/12/18 07:53:34;;;;;;;63.53;23.70;;;-10.50;99.90;;;;;;6281408;22;20170;-87
2022/12/18 07:56:06;;;;;;;60.30;22.73;;;-10.50;99.90;;;;;;6285137;22;20175;-87
2022/12/18 07:58:33;;;;;;;69.83;24.47;;;-10.40;99.90;;;;;;6285122;22;20243;-87
2022/12/18 08:01:41;;;;;;;69.33;23.17;;;-10.30;99.90;;;;;;6311184;22;20162;-87
2022/12/18 08:04:07;;;;;;;70.67;22.57;;;-10.20;99.90;;;;;;6285138;22;20519;-87
2022/12/18 08:06:32;;;;;;;61.87;23.17;;;-10.20;99.90;;;;;;6285186;22;20191;-87
2022/12/18 08:08:58;;;;;;;66.47;21.90;;;-10.10;99.90;;;;;;6284978;22;20155;-87
2022/12/18 08:11:28;;;;;;;73.30;23.73;;;-10.10;99.90;;;;;;6285575;22;20211;-87
2022/12/18 08:13:54;;;;;;;64.77;22.50;;;-10.00;99.90;;;;;;6310990;22;20152;-88
2022/12/18 08:16:23;;;;;;;57.00;20.67;;;-10.10;99.90;;;;;;6311395;22;20185;-87
2022/12/18 08:18:49;;;;;;;54.07;20.83;;;-10.10;99.90;;;;;;6310969;22;20183;-88
2022/12/18 08:21:24;;;;;;;61.90;20.40;;;-10.20;99.90;;;;;;6285919;22;20159;-88
2022/12/18 08:23:52;;;;;;;73.03;24.50;;;-10.20;99.90;;;;;;6311416;22;20151;-88
2022/12/18 08:26:18;;;;;;;62.37;23.77;;;-10.20;99.90;;;;;;6285216;22;20194;-88
2022/12/18 08:32:12;;;;;;;60.97;24.80;;;-10.40;99.90;;;;;;6311448;22;20165;-87
2022/12/18 08:34:38;;;;;;;55.43;23.13;;;-10.40;99.90;;;;;;6286948;22;20152;-87
2022/12/18 08:37:18;;;;;;;62.47;25.50;;;-10.30;99.90;;;;;;6285590;22;20179;-86
2022/12/18 08:39:44;;;;;;;56.07;21.93;;;-10.20;99.90;;;;;;6285122;22;20159;-86
2022/12/18 08:44:59;;;;;;;68.77;22.97;;;-9.90;99.90;;;;;;6311198;22;20249;-87
2022/12/18 08:47:25;;;;;;;58.53;23.07;;;-9.80;99.90;;;;;;6285149;22;20270;-86
2022/12/18 08:49:51;;;;;;;51.53;20.93;;;-9.70;99.90;;;;;;6285638;22;20162;-87
2022/12/18 08:52:17;;;;;;;50.47;21.80;;;-9.60;99.90;;;;;;6285364;22;20151;-87
2022/12/18 08:54:43;;;;;;;44.53;20.30;;;-9.50;99.90;;;;;;6285480;22;20159;-87
2022/12/18 08:57:09;;;;;;;50.83;23.77;;;-9.40;99.90;;;;;;6282443;22;20175;-87
2022/12/18 08:59:35;;;;;;;55.23;24.87;;;-9.30;99.90;;;;;;6310583;22;20164;-87
2022/12/18 09:02:01;;;;;;;55.93;21.93;;;-9.20;99.90;;;;;;6285041;22;20159;-86
2022/12/18 09:04:26;;;;;;;50.00;22.20;;;-9.00;99.90;;;;;;6284620;22;20159;-86
2022/12/18 09:06:55;;;;;;;49.07;21.57;;;-9.10;99.90;;;;;;6284676;22;20204;-87
2022/12/18 09:09:21;;;;;;;46.13;22.23;;;-9.00;99.90;;;;;;6310186;22;20152;-87
2022/12/18 09:11:47;;;;;;;45.13;21.17;;;-8.90;99.90;;;;;;6310911;22;20155;-87
2022/12/18 09:14:13;;;;;;;48.67;22.90;;;-8.80;99.90;;;;;;6285413;22;20174;-87
2022/12/18 09:16:39;;;;;;;55.07;24.13;;;-8.70;99.90;;;;;;6285616;22;20175;-88
2022/12/18 09:19:05;;;;;;;57.57;27.47;;;-8.50;99.90;;;;;;6284637;22;20166;-88
2022/12/18 09:21:44;;;;;;;52.13;24.73;;;-8.40;99.90;;;;;;6309777;22;20161;-88
2022/12/18 09:24:13;;;;;;;46.27;20.37;;;-8.40;99.90;;;;;;6284365;22;20212;-88
2022/12/18 09:26:39;;;;;;;54.93;22.17;;;-8.30;99.90;;;;;;6283248;22;20191;-87
2022/12/18 09:29:06;;;;;;;51.10;20.60;;;-8.20;99.90;;;;;;6284997;22;20165;-87
2022/12/18 09:31:33;;;;;;;46.97;20.30;;;-8.30;99.90;;;;;;6285006;22;20179;-87
2022/12/18 09:33:59;;;;;;;51.17;21.70;;;-8.10;99.90;;;;;;6311161;22;20156;-87
2022/12/18 09:36:25;;;;;;;57.70;23.20;;;-7.90;99.90;;;;;;6285217;22;20229;-88
2022/12/18 09:38:51;;;;;;;53.10;23.20;;;-7.90;99.90;;;;;;6286729;22;20163;-87
2022/12/18 09:41:44;;;;;;;56.10;24.23;;;-7.70;99.90;;;;;;6287130;22;20216;-88
2022/12/18 09:44:21;;;;;;;52.90;23.30;;;-7.60;99.90;;;;;;6286770;22;20171;-88
2022/12/18 09:46:56;;;;;;;71.33;29.77;;;-7.50;99.90;;;;;;6312384;22;20224;-87
2022/12/18 09:49:26;;;;;;;59.43;25.73;;;-7.50;99.90;;;;;;6286513;22;20154;-87
2022/12/18 09:52:11;;;;;;;49.03;21.33;;;-7.40;99.90;;;;;;6285734;22;20159;-88
2022/12/18 09:55:24;;;;;;;65.20;26.07;;;-7.50;99.90;;;;;;6287159;22;20147;-88
2022/12/18 09:57:56;;;;;;;64.67;30.43;;;-7.50;99.90;;;;;;6134596;23;20158;-88
2022/12/18 10:00:24;;;;;;;55.47;24.87;;;-7.40;99.90;;;;;;6262650;22;20173;-88
2022/12/18 10:02:53;;;;;;;52.17;24.87;;;-7.40;99.90;;;;;;6286309;22;20159;-89
2022/12/18 10:05:36;;;;;;;60.33;25.30;;;-7.40;99.90;;;;;;6312283;22;20594;-89
2022/12/18 10:08:12;;;;;;;56.67;25.83;;;-7.40;99.90;;;;;;6286648;22;20209;-89
2022/12/18 10:10:54;;;;;;;59.23;26.43;;;-7.40;99.90;;;;;;6312485;22;20148;-88
2022/12/18 10:13:49;;;;;;;58.47;26.30;;;-7.40;99.90;;;;;;6286368;22;20151;-88
2022/12/18 10:16:28;;;;;;;54.63;24.37;;;-7.20;99.90;;;;;;6312450;22;20195;-88
2022/12/18 10:18:56;;;;;;;54.00;24.13;;;-6.80;99.90;;;;;;6286334;22;20159;-88
2022/12/18 10:21:33;;;;;;;58.40;26.37;;;-6.70;99.90;;;;;;6285360;22;20191;-89
2022/12/18 10:24:35;;;;;;;53.30;25.17;;;-6.60;99.90;;;;;;6312855;22;20151;-88
2022/12/18 10:27:26;;;;;;;50.70;25.37;;;-6.50;99.90;;;;;;6134413;23;20189;-89
2022/12/18 10:29:52;;;;;;;49.13;23.93;;;-6.40;99.90;;;;;;6281039;22;20223;-87
2022/12/18 10:32:21;;;;;;;49.87;24.23;;;-6.20;99.90;;;;;;6311539;22;20156;-88
2022/12/18 10:34:49;;;;;;;57.87;25.77;;;-6.10;99.90;;;;;;6286033;22;20166;-88
2022/12/18 10:37:21;;;;;;;53.40;26.23;;;-5.90;99.90;;;;;;6312097;22;20179;-87
2022/12/18 10:40:13;;;;;;;52.13;25.87;;;-5.70;99.90;;;;;;6285761;22;20155;-88
2022/12/18 10:42:40;;;;;;;54.40;25.63;;;-5.60;99.90;;;;;;6286283;22;20152;-88
2022/12/18 10:45:13;;;;;;;54.90;27.17;;;-5.50;99.90;;;;;;6285790;22;20171;-87
2022/12/18 10:47:50;;;;;;;64.00;28.43;;;-5.40;99.90;;;;;;6285742;22;20187;-88
2022/12/18 10:50:29;;;;;;;60.97;26.63;;;-5.30;99.90;;;;;;6286383;22;20230;-88
2022/12/18 10:53:02;;;;;;;55.77;26.50;;;-5.20;99.90;;;;;;6312104;22;20228;-88
2022/12/18 10:55:38;;;;;;;56.67;26.43;;;-5.10;99.90;;;;;;6311744;22;20159;-88
2022/12/18 10:58:16;;;;;;;58.80;28.30;;;-5.00;99.90;;;;;;6285392;22;20165;-89
2022/12/18 11:00:42;;;;;;;59.63;30.67;;;-5.00;99.90;;;;;;6285358;22;20163;-89
2022/12/18 11:03:37;;;;;;;67.40;31.97;;;-4.90;99.90;;;;;;6286029;22;20166;-88
2022/12/18 11:06:08;;;;;;;67.80;33.97;;;-4.80;99.90;;;;;;6281826;22;20183;-88
2022/12/18 11:08:34;;;;;;;64.30;30.13;;;-4.70;99.90;;;;;;6311496;22;20166;-88
2022/12/18 11:11:00;;;;;;;60.60;30.37;;;-4.60;99.90;;;;;;6285976;22;20190;-88
2022/12/18 11:13:29;;;;;;;73.17;33.47;;;-4.50;99.90;;;;;;6301968;22;20219;-88
2022/12/18 11:15:55;;;;;;;69.37;32.80;;;-4.40;99.90;;;;;;6285608;22;20183;-88
2022/12/18 11:18:33;;;;;;;62.43;29.47;;;-4.30;99.90;;;;;;6286106;22;20555;-88
2022/12/18 11:21:08;;;;;;;65.80;29.47;;;-4.20;99.90;;;;;;6285763;22;20147;-89
2022/12/18 11:23:36;;;;;;;72.07;31.93;;;-4.10;99.90;;;;;;6311523;22;20155;-88
2022/12/18 11:26:04;;;;;;;69.10;33.13;;;-4.00;99.90;;;;;;6310868;22;20218;-89
2022/12/18 11:28:40;;;;;;;59.90;29.03;;;-3.90;99.90;;;;;;6286129;22;20177;-88
2022/12/18 11:31:31;;;;;;;65.07;29.17;;;-3.90;99.90;;;;;;6286226;22;20158;-88
2022/12/18 11:34:29;;;;;;;54.97;26.83;;;-3.70;99.90;;;;;;6286462;22;20139;-88
2022/12/18 11:36:56;;;;;;;45.70;22.17;;;-3.60;99.90;;;;;;6312090;22;20250;-88
2022/12/18 11:39:38;;;;;;;50.00;24.80;;;-3.60;99.90;;;;;;6311771;22;20155;-88
2022/12/18 11:42:23;;;;;;;46.60;24.47;;;-3.60;99.90;;;;;;6286631;22;20151;-88
2022/12/18 11:44:52;;;;;;;62.37;28.53;;;-3.40;99.90;;;;;;6285961;22;20171;-89
2022/12/18 11:47:40;;;;;;;58.90;29.73;;;-3.30;99.90;;;;;;6311669;22;20214;-88
2022/12/18 11:50:17;;;;;;;67.07;31.67;;;-3.20;99.90;;;;;;6286178;22;20155;-89
2022/12/18 11:52:43;;;;;;;65.20;30.53;;;-3.30;99.90;;;;;;6285840;22;20191;-89
2022/12/18 11:55:29;;;;;;;64.37;32.23;;;-3.20;99.90;;;;;;6312170;22;20147;-88
2022/12/18 11:58:01;;;;;;;64.53;33.00;;;-3.00;99.90;;;;;;6286123;22;20159;-89
2022/12/18 12:00:27;;;;;;;60.03;31.70;;;-3.00;99.90;;;;;;6285794;22;20155;-88
2022/12/18 12:03:22;;;;;;;67.67;33.03;;;-3.00;99.90;;;;;;6285743;22;20177;-88
2022/12/18 12:06:06;;;;;;;68.10;33.03;;;-3.00;99.90;;;;;;6286117;22;20163;-41
2022/12/18 12:08:53;;;;;;;57.90;32.27;;;-3.00;99.90;;;;;;6313493;22;20182;-43
2022/12/18 12:11:31;;;;;;;69.77;34.07;;;-3.10;99.90;;;;;;6340039;22;20139;-42
2022/12/18 12:14:14;;;;;;;63.23;31.50;;;-3.00;99.90;;;;;;6313293;22;20161;-40
2022/12/18 12:16:43;;;;;;;59.40;31.60;;;-3.10;99.90;;;;;;6313895;22;20155;-41
2022/12/18 12:19:33;;;;;;;66.83;32.83;;;-3.20;99.90;;;;;;6313156;22;20189;-88
2022/12/18 12:22:15;;;;;;;61.20;32.00;;;-3.20;99.90;;;;;;6278162;22;20186;-89
2022/12/18 12:25:14;;;;;;;67.90;32.73;;;-3.10;99.90;;;;;;6277681;22;20235;-88
2022/12/18 12:28:09;;;;;;;63.80;32.47;;;-3.10;99.90;;;;;;6278020;22;20497;-88
2022/12/18 12:30:47;;;;;;;62.00;31.80;;;-3.00;99.90;;;;;;6277693;22;20172;-88
2022/12/18 12:33:51;;;;;;;65.87;34.63;;;-2.90;99.90;;;;;;6252588;22;20202;-88
2022/12/18 12:36:25;;;;;;;65.83;35.33;;;-2.90;99.90;;;;;;6252820;22;20600;-89
2022/12/18 12:38:57;;;;;;;66.90;36.30;;;-2.80;99.90;;;;;;6277608;22;20154;-88
2022/12/18 12:44:29;;;;;;;60.23;30.40;;;-2.70;99.90;;;;;;6303275;22;20246;-88
2022/12/18 12:47:03;;;;;;;59.37;29.03;;;-2.60;99.90;;;;;;6277642;22;20231;-89
2022/12/18 12:49:33;;;;;;;56.77;28.30;;;-2.50;99.90;;;;;;6252795;22;20197;-88
2022/12/18 12:52:17;;;;;;;64.23;32.10;;;-2.60;99.90;;;;;;6252466;22;20256;-88
2022/12/18 12:54:45;;;;;;;57.77;29.03;;;-2.60;99.90;;;;;;6277517;22;20152;-89
2022/12/18 12:57:31;;;;;;;60.63;29.93;;;-2.60;99.90;;;;;;6252509;22;20520;-88
2022/12/18 13:00:19;;;;;;;53.90;28.33;;;-2.60;99.90;;;;;;6277055;22;20166;-88